createdAt,value
2018-09-19T00:00:38.875Z,84.3
2018-09-19T00:05:39.742Z,83.7
2018-09-19T00:10:38.721Z,85.2
2018-09-19T00:15:38.792Z,84.2
2018-09-19T00:20:38.822Z,84.6
2018-09-19T00:25:40.948Z,84.9
2018-09-19T00:30:40.819Z,85.4
2018-09-19T00:35:40.918Z,85.5
2018-09-19T00:40:40.955Z,85.5
2018-09-19T00:45:40.831Z,86.3
2018-09-19T00:50:40.702Z,86.4
2018-09-19T00:55:40.909Z,86.5
2018-09-19T01:00:42.020Z,87.1
2018-09-19T01:05:41.849Z,87.5
2018-09-19T01:10:54.041Z,87.3
2018-09-19T01:15:53.869Z,88.2
2018-09-19T01:20:53.980Z,87
2018-09-19T01:25:53.893Z,87.6
2018-09-19T01:30:53.946Z,87.8
2018-09-19T01:35:53.752Z,88.1
2018-09-19T01:40:53.760Z,87.5
2018-09-19T01:45:54.984Z,88.2
2018-09-19T01:50:54.902Z,88
2018-09-19T01:56:07.557Z,88.7
2018-09-19T02:01:07.282Z,89
2018-09-19T02:06:07.503Z,88.2
2018-09-19T02:11:07.630Z,88.4
2018-09-19T02:16:07.409Z,89.7
2018-09-19T02:21:07.450Z,88.5
2018-09-19T02:26:07.782Z,89.3
2018-09-19T02:31:13.051Z,89.8
2018-09-19T02:36:12.692Z,89.8
2018-09-19T02:41:25.459Z,90.1
2018-09-19T02:46:25.174Z,90.7
2018-09-19T02:51:25.312Z,91.5
2018-09-19T02:56:25.171Z,91.2
2018-09-19T03:01:25.236Z,91
2018-09-19T03:06:25.317Z,90.9
2018-09-19T03:11:25.178Z,90.8
2018-09-19T03:16:25.499Z,90.5
2018-09-19T03:21:25.221Z,91.1
2018-09-19T03:26:37.850Z,91.7
2018-09-19T03:31:37.683Z,92.3
2018-09-19T03:36:37.582Z,92.3
2018-09-19T03:41:37.687Z,92.7
2018-09-19T03:46:37.721Z,93
2018-09-19T03:51:37.602Z,93.3
2018-09-19T03:56:37.586Z,92.9
2018-09-19T04:01:37.831Z,93.3
2018-09-19T04:06:38.014Z,93.3
2018-09-19T04:11:50.435Z,93.6
2018-09-19T04:16:50.381Z,93.1
2018-09-19T04:21:50.276Z,93.6
2018-09-19T04:26:50.187Z,94.3
2018-09-19T04:31:50.179Z,93.7
2018-09-19T04:36:50.271Z,94.1
2018-09-19T04:41:50.222Z,94.3
2018-09-19T04:46:50.399Z,94.3
2018-09-19T04:51:50.357Z,94.2
2018-09-19T04:56:50.169Z,93.4
2018-09-19T05:01:50.386Z,93.8
2018-09-19T05:06:50.182Z,94.4
2018-09-19T05:11:52.208Z,93.4
2018-09-19T05:16:52.166Z,93.9
2018-09-19T05:22:02.186Z,93.7
2018-09-19T05:27:02.117Z,92.7
2018-09-19T05:32:02.306Z,92.7
2018-09-19T05:37:02.080Z,93.3
2018-09-19T05:42:01.954Z,93.1
2018-09-19T05:47:02.178Z,93.2
2018-09-19T05:52:02.078Z,93.5
2018-09-19T05:57:02.519Z,93.6
2018-09-19T06:02:02.231Z,92.5
2018-09-19T06:07:15.074Z,91.4
2018-09-19T06:12:14.885Z,91.8
2018-09-19T06:17:14.999Z,91.3
2018-09-19T06:22:14.991Z,91
2018-09-19T06:27:15.030Z,91
2018-09-19T06:32:14.790Z,90.7
2018-09-19T06:37:14.966Z,90.9
2018-09-19T06:42:14.796Z,91.5
2018-09-19T06:47:14.850Z,91.2
2018-09-19T06:52:14.998Z,89.1
2018-09-19T06:57:14.794Z,89.5
2018-09-19T07:02:14.797Z,88.3
2018-09-19T07:07:15.684Z,88.6
2018-09-19T07:12:15.357Z,88.3
2018-09-19T07:17:28.408Z,89.1
2018-09-19T07:22:28.303Z,88.2
2018-09-19T07:27:28.124Z,87.9
2018-09-19T07:32:28.129Z,87.6
2018-09-19T07:37:28.142Z,86.3
2018-09-19T07:42:28.141Z,85.6
2018-09-19T07:47:28.376Z,86
2018-09-19T07:52:28.149Z,85.5
2018-09-19T07:57:28.157Z,85.6
2018-09-19T08:02:40.607Z,84.8
2018-09-19T08:07:40.380Z,84.9
2018-09-19T08:12:40.350Z,84.1
2018-09-19T08:17:40.369Z,82.8
2018-09-19T08:22:40.836Z,83.1
2018-09-19T08:27:40.403Z,81.7
2018-09-19T08:32:40.706Z,80.2
2018-09-19T08:37:40.433Z,81.7
2018-09-19T08:42:40.443Z,81.8
2018-09-19T08:47:40.545Z,80
2018-09-19T08:52:40.590Z,78.5
2018-09-19T08:57:40.628Z,78.8
2018-09-19T09:02:41.692Z,78.7
2018-09-19T09:07:41.267Z,78.1
2018-09-19T09:12:53.281Z,78.2
2018-09-19T09:17:53.264Z,77.2
2018-09-19T09:22:53.181Z,77
2018-09-19T09:27:53.232Z,77.5
2018-09-19T09:32:53.032Z,78.1
2018-09-19T09:37:53.146Z,78.7
2018-09-19T09:42:53.481Z,78.2
2018-09-19T09:47:53.251Z,79
2018-09-19T09:52:54.770Z,77.8
2018-09-19T09:58:05.473Z,78.2
2018-09-19T10:03:05.122Z,78.4
2018-09-19T10:08:05.119Z,77.7
2018-09-19T10:13:05.373Z,79.3
2018-09-19T10:18:05.357Z,81.8
2018-09-19T10:23:05.133Z,79.7
2018-09-19T10:28:05.300Z,79.2
2018-09-19T10:33:05.346Z,78.6
2018-09-19T10:38:05.278Z,79.3
2018-09-19T10:43:05.355Z,78.7
2018-09-19T10:48:05.336Z,78.5
2018-09-19T10:53:05.375Z,77.8
2018-09-19T10:58:07.877Z,76
2018-09-19T11:03:07.990Z,74
2018-09-19T11:08:18.287Z,70.5
2018-09-19T11:13:17.998Z,70
2018-09-19T11:18:18.253Z,63.5
2018-09-19T11:23:18.012Z,61.7
2018-09-19T11:28:18.201Z,57
2018-09-19T11:33:18.119Z,59.9
2018-09-19T11:38:18.138Z,58.1
2018-09-19T11:43:18.716Z,57.8
2018-09-19T11:48:18.345Z,55.9
2018-09-19T11:53:30.873Z,56.7
2018-09-19T11:58:30.824Z,57.1
2018-09-19T12:03:30.579Z,56.8
2018-09-19T12:08:30.855Z,54.6
2018-09-19T12:13:30.985Z,55.6
2018-09-19T12:18:30.858Z,55.1
2018-09-19T12:23:31.066Z,57.2
2018-09-19T12:28:31.095Z,56.7
2018-09-19T12:33:31.177Z,55.4
2018-09-19T12:38:30.948Z,55.8
2018-09-19T12:43:30.973Z,56
2018-09-19T12:48:30.956Z,55.9
2018-09-19T12:53:35.419Z,55.6
2018-09-19T12:58:35.375Z,54.5
2018-09-19T13:03:46.104Z,54.9
2018-09-19T13:08:46.062Z,57.5
2018-09-19T13:13:45.782Z,56.9
2018-09-19T13:18:45.813Z,56.5
2018-09-19T13:23:45.829Z,55
2018-09-19T13:28:45.824Z,56.6
2018-09-19T13:33:45.992Z,56.4
2018-09-19T13:38:45.902Z,57.5
2018-09-19T13:43:45.984Z,57.2
2018-09-19T13:48:59.052Z,55.4
2018-09-19T13:53:58.760Z,55.6
2018-09-19T13:58:59.180Z,55.5
2018-09-19T14:03:59.208Z,54.3
2018-09-19T14:08:59.254Z,54.5
2018-09-19T14:13:59.038Z,53.8
2018-09-19T14:18:59.198Z,52.7
2018-09-19T14:23:59.047Z,53.7
2018-09-19T14:28:59.043Z,53.6
2018-09-19T14:33:59.032Z,52
2018-09-19T14:38:59.059Z,50.5
2018-09-19T14:43:59.049Z,50.4
2018-09-19T14:48:59.277Z,49.6
2018-09-19T14:53:59.036Z,48.2
2018-09-19T14:59:11.123Z,47.6
2018-09-19T15:04:10.851Z,48.2
2018-09-19T15:09:10.868Z,55.6
2018-09-19T15:14:10.862Z,61.1
2018-09-19T15:19:10.853Z,62.5
2018-09-19T15:24:10.908Z,62.3
2018-09-19T15:29:10.879Z,62.5
2018-09-19T15:34:12.245Z,63.1
2018-09-19T15:39:11.953Z,64.2
2018-09-19T15:44:25.179Z,64.7
2018-09-19T15:49:24.731Z,65.1
2018-09-19T15:54:24.779Z,64.5
2018-09-19T15:59:25.523Z,64.8
2018-09-19T16:04:24.761Z,65.6
2018-09-19T16:09:24.882Z,65.3
2018-09-19T16:14:24.665Z,66
2018-09-19T16:19:25.986Z,65.8
2018-09-19T16:24:25.713Z,66.8
2018-09-19T16:29:38.193Z,66.8
2018-09-19T16:34:37.754Z,66.1
2018-09-19T16:39:37.979Z,67.4
2018-09-19T16:44:37.762Z,68.1
2018-09-19T16:49:37.775Z,68.4
2018-09-19T16:54:37.762Z,69.6
2018-09-19T16:59:37.758Z,68.3
2018-09-19T17:04:39.412Z,69.9
2018-09-19T17:09:39.308Z,71.9
2018-09-19T17:14:49.812Z,72.7
2018-09-19T17:19:49.517Z,72.7
2018-09-19T17:24:49.524Z,72.9
2018-09-19T17:29:49.545Z,73.7
2018-09-19T17:34:49.548Z,74.5
2018-09-19T17:39:49.532Z,75.3
2018-09-19T17:44:49.527Z,76.1
2018-09-19T17:49:51.463Z,77
2018-09-19T17:54:50.932Z,77.7
2018-09-19T18:00:03.436Z,79.6
2018-09-19T18:05:03.236Z,79.5
2018-09-19T18:10:03.273Z,79.3
2018-09-19T18:15:03.253Z,79.5
2018-09-19T18:20:03.253Z,80
2018-09-19T18:25:03.212Z,81.5
2018-09-19T18:30:03.195Z,82.6
2018-09-19T18:35:08.483Z,83
2018-09-19T18:40:06.337Z,83
2018-09-19T18:45:19.792Z,84.1
2018-09-19T18:50:19.489Z,84.2
2018-09-19T18:55:19.481Z,84.2
2018-09-19T19:00:19.523Z,84.8
2018-09-19T19:05:19.545Z,84.7
2018-09-19T19:10:19.589Z,84.8
2018-09-19T19:15:19.551Z,84.8
2018-09-19T19:20:20.055Z,84.8
2018-09-19T19:25:19.619Z,86.6
2018-09-19T19:30:21.221Z,86.9
2018-09-19T19:35:19.624Z,86.6
2018-09-19T19:40:19.694Z,86.4
2018-09-19T19:45:23.143Z,86.6
2018-09-19T19:50:23.163Z,86.8
2018-09-19T19:55:35.163Z,88.1
2018-09-19T20:00:35.255Z,86.9
2018-09-19T20:05:34.882Z,88.2
2018-09-19T20:10:34.969Z,88.5
2018-09-19T20:15:34.900Z,86.9
2018-09-19T20:20:34.906Z,86.9
2018-09-19T20:25:34.949Z,87.5
2018-09-19T20:30:35.985Z,88.2
2018-09-19T20:35:35.729Z,88
2018-09-19T20:40:48.775Z,88
2018-09-19T20:45:48.493Z,88.8
2018-09-19T20:50:48.720Z,89.1
2018-09-19T20:55:48.615Z,88.9
2018-09-19T21:00:48.471Z,89.4
2018-09-19T21:05:48.514Z,89.5
2018-09-19T21:10:48.624Z,89.9
2018-09-19T21:15:50.010Z,90.8
2018-09-19T21:20:49.753Z,89.2
2018-09-19T21:26:02.666Z,88.7
2018-09-19T21:31:02.524Z,88.2
2018-09-19T21:36:02.372Z,89.1
2018-09-19T21:41:02.555Z,89.2
2018-09-19T21:46:02.557Z,90.3
2018-09-19T21:51:02.375Z,90
2018-09-19T21:56:02.552Z,90.3
2018-09-19T22:01:03.114Z,89.1
2018-09-19T22:06:03.830Z,89.2
2018-09-19T22:11:15.573Z,89.2
2018-09-19T22:16:15.478Z,90
2018-09-19T22:21:15.430Z,89.6
2018-09-19T22:26:15.297Z,90.1
2018-09-19T22:31:15.499Z,90.4
2018-09-19T22:36:15.548Z,90
2018-09-19T22:41:15.442Z,90.6
2018-09-19T22:46:15.286Z,89.9
2018-09-19T22:51:15.326Z,91.5
2018-09-19T22:56:27.269Z,91.5
2018-09-19T23:01:26.966Z,92.2
2018-09-19T23:06:27.076Z,92.2
2018-09-19T23:11:26.971Z,92.3
2018-09-19T23:16:27.155Z,92.3
2018-09-19T23:21:27.138Z,92.8
2018-09-19T23:26:27.174Z,93.4
2018-09-19T23:31:27.250Z,93.1
2018-09-19T23:36:27.513Z,93.2
2018-09-19T23:41:39.894Z,92.9
2018-09-19T23:46:39.750Z,93.6
2018-09-19T23:51:39.637Z,92.7
2018-09-19T23:56:39.632Z,92.3
